sensor_id;sensor_type;location;lat;lon;timestamp;P1;durP1;ratioP1;P2;durP2;ratioP2
4074;SDS011;2052;53.522;9.806;2022-12-07T00:00:51;33.67;;;16.63;;
4074;SDS011;2052;53.522;9.806;2022-12-07T00:03:17;32.30;;;16.27;;
4074;SDS011;2052;53.522;9.806;2022-12-07T00:05:44;28.83;;;15.67;;
4074;SDS011;2052;53.522;9.806;2022-12-07T00:08:11;37.60;;;15.83;;
4074;SDS011;2052;53.522;9.806;2022-12-07T00:10:38;36.63;;;17.70;;
4074;SDS011;2052;53.522;9.806;2022-12-07T00:13:04;33.27;;;16.37;;
4074;SDS011;2052;53.522;9.806;2022-12-07T00:15:34;35.17;;;16.47;;
4074;SDS011;2052;53.522;9.806;2022-12-07T00:18:01;32.23;;;15.10;;
4074;SDS011;2052;53.522;9.806;2022-12-07T00:20:28;25.97;;;14.43;;
4074;SDS011;2052;53.522;9.806;2022-12-07T00:22:56;24.33;;;14.20;;
4074;SDS011;2052;53.522;9.806;2022-12-07T00:25:22;28.30;;;14.50;;
4074;SDS011;2052;53.522;9.806;2022-12-07T00:27:49;28.47;;;14.67;;
4074;SDS011;2052;53.522;9.806;2022-12-07T00:30:16;29.33;;;14.53;;
4074;SDS011;2052;53.522;9.806;2022-12-07T00:32:44;23.87;;;12.83;;
4074;SDS011;2052;53.522;9.806;2022-12-07T00:35:11;29.90;;;14.70;;
4074;SDS011;2052;53.522;9.806;2022-12-07T00:37:38;30.60;;;14.47;;
4074;SDS011;2052;53.522;9.806;2022-12-07T00:40:05;28.77;;;13.30;;
4074;SDS011;2052;53.522;9.806;2022-12-07T00:42:34;25.43;;;12.53;;
4074;SDS011;2052;53.522;9.806;2022-12-07T00:45:00;28.27;;;13.00;;
4074;SDS011;2052;53.522;9.806;2022-12-07T00:47:27;30.90;;;12.90;;
4074;SDS011;2052;53.522;9.806;2022-12-07T00:49:55;26.63;;;13.47;;
4074;SDS011;2052;53.522;9.806;2022-12-07T00:52:22;29.10;;;13.00;;
4074;SDS011;2052;53.522;9.806;2022-12-07T00:54:49;25.67;;;12.80;;
4074;SDS011;2052;53.522;9.806;2022-12-07T00:57:15;30.07;;;13.97;;
4074;SDS011;2052;53.522;9.806;2022-12-07T00:59:42;26.17;;;13.67;;
4074;SDS011;2052;53.522;9.806;2022-12-07T01:02:09;30.60;;;14.00;;
4074;SDS011;2052;53.522;9.806;2022-12-07T01:04:35;30.77;;;13.57;;
4074;SDS011;2052;53.522;9.806;2022-12-07T01:07:04;30.23;;;14.00;;
4074;SDS011;2052;53.522;9.806;2022-12-07T01:09:30;27.20;;;13.60;;
4074;SDS011;2052;53.522;9.806;2022-12-07T01:11:57;27.00;;;13.00;;
4074;SDS011;2052;53.522;9.806;2022-12-07T01:14:24;25.63;;;12.53;;
4074;SDS011;2052;53.522;9.806;2022-12-07T01:16:51;23.63;;;12.33;;
4074;SDS011;2052;53.522;9.806;2022-12-07T01:19:18;28.47;;;13.83;;
4074;SDS011;2052;53.522;9.806;2022-12-07T01:21:44;29.27;;;14.40;;
4074;SDS011;2052;53.522;9.806;2022-12-07T01:24:14;32.33;;;13.23;;
4074;SDS011;2052;53.522;9.806;2022-12-07T01:26:40;30.00;;;13.80;;
4074;SDS011;2052;53.522;9.806;2022-12-07T01:29:07;27.37;;;12.67;;
4074;SDS011;2052;53.522;9.806;2022-12-07T01:31:34;27.53;;;14.20;;
4074;SDS011;2052;53.522;9.806;2022-12-07T01:34:01;29.70;;;13.97;;
4074;SDS011;2052;53.522;9.806;2022-12-07T01:36:29;30.70;;;13.23;;
4074;SDS011;2052;53.522;9.806;2022-12-07T01:38:58;29.33;;;13.80;;
4074;SDS011;2052;53.522;9.806;2022-12-07T01:41:28;30.03;;;13.27;;
4074;SDS011;2052;53.522;9.806;2022-12-07T01:44:13;29.90;;;12.83;;
4074;SDS011;2052;53.522;9.806;2022-12-07T01:46:45;28.37;;;12.80;;
4074;SDS011;2052;53.522;9.806;2022-12-07T01:49:14;25.93;;;12.83;;
4074;SDS011;2052;53.522;9.806;2022-12-07T01:51:44;27.53;;;12.60;;
4074;SDS011;2052;53.522;9.806;2022-12-07T01:54:13;27.93;;;13.00;;
4074;SDS011;2052;53.522;9.806;2022-12-07T01:56:45;27.80;;;13.13;;
4074;SDS011;2052;53.522;9.806;2022-12-07T01:59:16;26.97;;;12.93;;
4074;SDS011;2052;53.522;9.806;2022-12-07T02:01:44;29.20;;;12.83;;
4074;SDS011;2052;53.522;9.806;2022-12-07T02:04:11;27.67;;;11.87;;
4074;SDS011;2052;53.522;9.806;2022-12-07T02:06:38;27.47;;;11.97;;
4074;SDS011;2052;53.522;9.806;2022-12-07T02:09:07;23.87;;;11.10;;
4074;SDS011;2052;53.522;9.806;2022-12-07T02:11:33;27.97;;;12.80;;
4074;SDS011;2052;53.522;9.806;2022-12-07T02:14:02;29.87;;;13.07;;
4074;SDS011;2052;53.522;9.806;2022-12-07T02:16:31;24.30;;;10.63;;
4074;SDS011;2052;53.522;9.806;2022-12-07T02:19:04;29.27;;;11.47;;
4074;SDS011;2052;53.522;9.806;2022-12-07T02:21:42;24.00;;;10.83;;
4074;SDS011;2052;53.522;9.806;2022-12-07T02:24:25;33.87;;;12.00;;
4074;SDS011;2052;53.522;9.806;2022-12-07T02:29:57;21.27;;;11.10;;
4074;SDS011;2052;53.522;9.806;2022-12-07T02:32:26;25.63;;;11.20;;
4074;SDS011;2052;53.522;9.806;2022-12-07T02:34:56;20.87;;;10.80;;
4074;SDS011;2052;53.522;9.806;2022-12-07T02:37:29;23.23;;;10.43;;
4074;SDS011;2052;53.522;9.806;2022-12-07T02:40:04;23.70;;;10.70;;
4074;SDS011;2052;53.522;9.806;2022-12-07T02:42:36;23.13;;;9.77;;
4074;SDS011;2052;53.522;9.806;2022-12-07T02:45:07;22.87;;;8.77;;
4074;SDS011;2052;53.522;9.806;2022-12-07T02:47:35;15.50;;;8.47;;
4074;SDS011;2052;53.522;9.806;2022-12-07T02:50:03;20.73;;;8.00;;
4074;SDS011;2052;53.522;9.806;2022-12-07T02:52:30;17.97;;;7.87;;
4074;SDS011;2052;53.522;9.806;2022-12-07T02:54:57;21.23;;;7.10;;
4074;SDS011;2052;53.522;9.806;2022-12-07T02:57:31;14.93;;;5.93;;
4074;SDS011;2052;53.522;9.806;2022-12-07T03:00:10;16.57;;;8.17;;
4074;SDS011;2052;53.522;9.806;2022-12-07T03:02:44;15.50;;;6.07;;
4074;SDS011;2052;53.522;9.806;2022-12-07T03:05:21;13.10;;;5.63;;
4074;SDS011;2052;53.522;9.806;2022-12-07T03:08:11;19.33;;;6.37;;
4074;SDS011;2052;53.522;9.806;2022-12-07T03:10:40;13.93;;;5.80;;
4074;SDS011;2052;53.522;9.806;2022-12-07T03:13:15;10.10;;;5.10;;
4074;SDS011;2052;53.522;9.806;2022-12-07T03:15:49;14.20;;;4.90;;
4074;SDS011;2052;53.522;9.806;2022-12-07T03:18:18;13.33;;;5.87;;
4074;SDS011;2052;53.522;9.806;2022-12-07T03:20:46;14.27;;;4.73;;
4074;SDS011;2052;53.522;9.806;2022-12-07T03:23:14;9.57;;;3.93;;
4074;SDS011;2052;53.522;9.806;2022-12-07T03:25:45;6.97;;;3.37;;
4074;SDS011;2052;53.522;9.806;2022-12-07T03:28:13;13.13;;;4.37;;
4074;SDS011;2052;53.522;9.806;2022-12-07T03:30:44;12.20;;;4.53;;
4074;SDS011;2052;53.522;9.806;2022-12-07T03:33:15;8.10;;;3.80;;
4074;SDS011;2052;53.522;9.806;2022-12-07T03:35:47;6.70;;;4.40;;
4074;SDS011;2052;53.522;9.806;2022-12-07T03:38:18;13.00;;;3.70;;
4074;SDS011;2052;53.522;9.806;2022-12-07T03:40:48;6.00;;;3.63;;
4074;SDS011;2052;53.522;9.806;2022-12-07T03:43:16;7.80;;;3.27;;
4074;SDS011;2052;53.522;9.806;2022-12-07T03:45:45;9.50;;;2.90;;
4074;SDS011;2052;53.522;9.806;2022-12-07T03:48:20;11.53;;;3.83;;
4074;SDS011;2052;53.522;9.806;2022-12-07T03:50:52;6.90;;;3.10;;
4074;SDS011;2052;53.522;9.806;2022-12-07T03:53:22;16.00;;;3.60;;
4074;SDS011;2052;53.522;9.806;2022-12-07T03:55:51;4.20;;;2.70;;
4074;SDS011;2052;53.522;9.806;2022-12-07T03:58:19;4.70;;;2.97;;
4074;SDS011;2052;53.522;9.806;2022-12-07T04:00:47;3.30;;;2.30;;
4074;SDS011;2052;53.522;9.806;2022-12-07T04:03:16;6.43;;;3.40;;
4074;SDS011;2052;53.522;9.806;2022-12-07T04:05:43;7.00;;;2.70;;
4074;SDS011;2052;53.522;9.806;2022-12-07T04:08:11;7.80;;;3.40;;
4074;SDS011;2052;53.522;9.806;2022-12-07T04:10:37;8.67;;;3.10;;
4074;SDS011;2052;53.522;9.806;2022-12-07T04:13:04;8.80;;;2.30;;
4074;SDS011;2052;53.522;9.806;2022-12-07T04:15:31;4.23;;;2.40;;
4074;SDS011;2052;53.522;9.806;2022-12-07T04:17:59;3.23;;;2.40;;
4074;SDS011;2052;53.522;9.806;2022-12-07T04:20:26;9.37;;;2.80;;
4074;SDS011;2052;53.522;9.806;2022-12-07T04:22:53;8.20;;;3.23;;
4074;SDS011;2052;53.522;9.806;2022-12-07T04:25:19;7.70;;;3.43;;
4074;SDS011;2052;53.522;9.806;2022-12-07T04:27:46;6.33;;;2.90;;
4074;SDS011;2052;53.522;9.806;2022-12-07T04:30:13;6.17;;;2.30;;
4074;SDS011;2052;53.522;9.806;2022-12-07T04:32:40;11.10;;;2.53;;
4074;SDS011;2052;53.522;9.806;2022-12-07T04:35:08;4.17;;;2.40;;
4074;SDS011;2052;53.522;9.806;2022-12-07T04:37:35;9.63;;;2.90;;
4074;SDS011;2052;53.522;9.806;2022-12-07T04:40:05;5.50;;;2.57;;
4074;SDS011;2052;53.522;9.806;2022-12-07T04:42:33;7.80;;;3.10;;
4074;SDS011;2052;53.522;9.806;2022-12-07T04:45:00;5.43;;;3.10;;
4074;SDS011;2052;53.522;9.806;2022-12-07T04:47:27;5.20;;;3.00;;
4074;SDS011;2052;53.522;9.806;2022-12-07T04:49:54;5.50;;;3.50;;
4074;SDS011;2052;53.522;9.806;2022-12-07T04:52:22;6.80;;;3.23;;
4074;SDS011;2052;53.522;9.806;2022-12-07T04:54:49;5.43;;;3.00;;
4074;SDS011;2052;53.522;9.806;2022-12-07T04:57:16;5.40;;;3.13;;
4074;SDS011;2052;53.522;9.806;2022-12-07T04:59:42;3.37;;;2.40;;
4074;SDS011;2052;53.522;9.806;2022-12-07T05:02:09;4.63;;;3.00;;
4074;SDS011;2052;53.522;9.806;2022-12-07T05:04:36;8.20;;;3.17;;
4074;SDS011;2052;53.522;9.806;2022-12-07T05:07:02;6.87;;;3.37;;
4074;SDS011;2052;53.522;9.806;2022-12-07T05:09:31;10.30;;;2.30;;
4074;SDS011;2052;53.522;9.806;2022-12-07T05:11:57;3.77;;;2.70;;
4074;SDS011;2052;53.522;9.806;2022-12-07T05:14:24;9.10;;;3.87;;
4074;SDS011;2052;53.522;9.806;2022-12-07T05:16:51;5.17;;;3.07;;
4074;SDS011;2052;53.522;9.806;2022-12-07T05:19:19;4.50;;;3.30;;
4074;SDS011;2052;53.522;9.806;2022-12-07T05:21:46;10.53;;;3.73;;
4074;SDS011;2052;53.522;9.806;2022-12-07T05:24:14;6.70;;;3.27;;
4074;SDS011;2052;53.522;9.806;2022-12-07T05:26:43;6.13;;;3.20;;
4074;SDS011;2052;53.522;9.806;2022-12-07T05:29:10;5.00;;;2.83;;
4074;SDS011;2052;53.522;9.806;2022-12-07T05:31:37;7.80;;;3.50;;
4074;SDS011;2052;53.522;9.806;2022-12-07T05:34:04;8.97;;;3.80;;
4074;SDS011;2052;53.522;9.806;2022-12-07T05:36:31;8.90;;;3.53;;
4074;SDS011;2052;53.522;9.806;2022-12-07T05:38:58;4.63;;;2.97;;
4074;SDS011;2052;53.522;9.806;2022-12-07T05:41:24;8.90;;;3.87;;
4074;SDS011;2052;53.522;9.806;2022-12-07T05:44:10;11.93;;;3.43;;
4074;SDS011;2052;53.522;9.806;2022-12-07T05:46:37;7.00;;;2.77;;
4074;SDS011;2052;53.522;9.806;2022-12-07T05:49:03;4.27;;;3.00;;
4074;SDS011;2052;53.522;9.806;2022-12-07T05:51:30;6.20;;;3.13;;
4074;SDS011;2052;53.522;9.806;2022-12-07T05:53:57;7.57;;;2.90;;
4074;SDS011;2052;53.522;9.806;2022-12-07T05:56:24;5.93;;;3.37;;
4074;SDS011;2052;53.522;9.806;2022-12-07T05:58:51;5.43;;;2.93;;
4074;SDS011;2052;53.522;9.806;2022-12-07T06:01:37;4.30;;;3.07;;
4074;SDS011;2052;53.522;9.806;2022-12-07T06:04:04;5.57;;;3.30;;
4074;SDS011;2052;53.522;9.806;2022-12-07T06:06:30;5.83;;;3.47;;
4074;SDS011;2052;53.522;9.806;2022-12-07T06:08:57;5.60;;;2.83;;
4074;SDS011;2052;53.522;9.806;2022-12-07T06:11:24;5.17;;;3.20;;
4074;SDS011;2052;53.522;9.806;2022-12-07T06:14:08;7.70;;;3.53;;
4074;SDS011;2052;53.522;9.806;2022-12-07T06:16:35;4.83;;;3.67;;
4074;SDS011;2052;53.522;9.806;2022-12-07T06:19:03;12.87;;;5.87;;
4074;SDS011;2052;53.522;9.806;2022-12-07T06:21:29;13.90;;;4.80;;
4074;SDS011;2052;53.522;9.806;2022-12-07T06:23:56;23.17;;;9.50;;
4074;SDS011;2052;53.522;9.806;2022-12-07T06:26:23;18.50;;;9.53;;
4074;SDS011;2052;53.522;9.806;2022-12-07T06:28:50;9.40;;;5.30;;
4074;SDS011;2052;53.522;9.806;2022-12-07T06:31:17;16.37;;;8.50;;
4074;SDS011;2052;53.522;9.806;2022-12-07T06:33:45;13.13;;;5.43;;
4074;SDS011;2052;53.522;9.806;2022-12-07T06:36:12;12.40;;;4.80;;
4074;SDS011;2052;53.522;9.806;2022-12-07T06:38:39;9.50;;;3.57;;
4074;SDS011;2052;53.522;9.806;2022-12-07T06:41:05;5.00;;;2.97;;
4074;SDS011;2052;53.522;9.806;2022-12-07T06:43:33;7.23;;;3.53;;
4074;SDS011;2052;53.522;9.806;2022-12-07T06:45:59;9.10;;;4.40;;
4074;SDS011;2052;53.522;9.806;2022-12-07T06:48:26;9.20;;;4.20;;
4074;SDS011;2052;53.522;9.806;2022-12-07T06:50:54;7.83;;;3.77;;
4074;SDS011;2052;53.522;9.806;2022-12-07T06:53:21;3.80;;;3.50;;
4074;SDS011;2052;53.522;9.806;2022-12-07T06:55:48;8.83;;;3.73;;
4074;SDS011;2052;53.522;9.806;2022-12-07T06:58:15;4.50;;;4.00;;
4074;SDS011;2052;53.522;9.806;2022-12-07T07:00:42;3.83;;;2.43;;
4074;SDS011;2052;53.522;9.806;2022-12-07T07:03:08;4.53;;;3.10;;
4074;SDS011;2052;53.522;9.806;2022-12-07T07:05:35;17.50;;;7.10;;
4074;SDS011;2052;53.522;9.806;2022-12-07T07:08:03;10.17;;;4.27;;
4074;SDS011;2052;53.522;9.806;2022-12-07T07:10:30;3.33;;;2.60;;
4074;SDS011;2052;53.522;9.806;2022-12-07T07:12:57;4.73;;;2.30;;
4074;SDS011;2052;53.522;9.806;2022-12-07T07:15:24;5.67;;;2.67;;
4074;SDS011;2052;53.522;9.806;2022-12-07T07:17:50;3.70;;;2.20;;
4074;SDS011;2052;53.522;9.806;2022-12-07T07:20:17;3.00;;;2.40;;
4074;SDS011;2052;53.522;9.806;2022-12-07T07:22:44;4.47;;;2.40;;
4074;SDS011;2052;53.522;9.806;2022-12-07T07:25:13;5.90;;;2.40;;
4074;SDS011;2052;53.522;9.806;2022-12-07T07:27:40;5.13;;;2.60;;
4074;SDS011;2052;53.522;9.806;2022-12-07T07:30:07;3.93;;;2.67;;
4074;SDS011;2052;53.522;9.806;2022-12-07T07:32:34;13.07;;;3.00;;
4074;SDS011;2052;53.522;9.806;2022-12-07T07:35:01;6.37;;;2.30;;
4074;SDS011;2052;53.522;9.806;2022-12-07T07:37:28;3.47;;;2.20;;
4074;SDS011;2052;53.522;9.806;2022-12-07T07:39:55;2.73;;;2.43;;
4074;SDS011;2052;53.522;9.806;2022-12-07T07:42:23;2.93;;;2.10;;
4074;SDS011;2052;53.522;9.806;2022-12-07T07:44:49;6.90;;;2.50;;
4074;SDS011;2052;53.522;9.806;2022-12-07T07:47:16;10.07;;;3.70;;
4074;SDS011;2052;53.522;9.806;2022-12-07T07:49:43;9.83;;;4.40;;
4074;SDS011;2052;53.522;9.806;2022-12-07T07:52:10;4.80;;;2.80;;
4074;SDS011;2052;53.522;9.806;2022-12-07T07:54:36;6.43;;;2.20;;
4074;SDS011;2052;53.522;9.806;2022-12-07T07:57:03;7.53;;;3.23;;
4074;SDS011;2052;53.522;9.806;2022-12-07T07:59:31;8.27;;;2.53;;
4074;SDS011;2052;53.522;9.806;2022-12-07T08:01:58;12.80;;;2.70;;
4074;SDS011;2052;53.522;9.806;2022-12-07T08:04:25;8.00;;;2.40;;
4074;SDS011;2052;53.522;9.806;2022-12-07T08:06:52;4.30;;;3.07;;
4074;SDS011;2052;53.522;9.806;2022-12-07T08:09:19;6.23;;;3.33;;
4074;SDS011;2052;53.522;9.806;2022-12-07T08:11:45;2.30;;;2.10;;
4074;SDS011;2052;53.522;9.806;2022-12-07T08:14:12;9.27;;;2.67;;
4074;SDS011;2052;53.522;9.806;2022-12-07T08:16:40;6.50;;;2.67;;
4074;SDS011;2052;53.522;9.806;2022-12-07T08:19:07;9.57;;;3.00;;
4074;SDS011;2052;53.522;9.806;2022-12-07T08:21:34;4.27;;;2.70;;
4074;SDS011;2052;53.522;9.806;2022-12-07T08:24:01;6.53;;;3.10;;
4074;SDS011;2052;53.522;9.806;2022-12-07T08:26:27;5.20;;;3.00;;
4074;SDS011;2052;53.522;9.806;2022-12-07T08:28:54;4.87;;;2.27;;
4074;SDS011;2052;53.522;9.806;2022-12-07T08:31:21;5.13;;;3.27;;
4074;SDS011;2052;53.522;9.806;2022-12-07T08:33:49;14.83;;;2.57;;
4074;SDS011;2052;53.522;9.806;2022-12-07T08:36:16;30.57;;;14.07;;
4074;SDS011;2052;53.522;9.806;2022-12-07T08:38:43;6.90;;;3.40;;
4074;SDS011;2052;53.522;9.806;2022-12-07T08:41:10;11.97;;;4.87;;
4074;SDS011;2052;53.522;9.806;2022-12-07T08:43:37;6.60;;;4.33;;
4074;SDS011;2052;53.522;9.806;2022-12-07T08:46:06;6.53;;;3.00;;
4074;SDS011;2052;53.522;9.806;2022-12-07T08:48:36;7.10;;;2.90;;
4074;SDS011;2052;53.522;9.806;2022-12-07T08:51:06;8.90;;;3.20;;
4074;SDS011;2052;53.522;9.806;2022-12-07T08:53:33;5.10;;;2.40;;
4074;SDS011;2052;53.522;9.806;2022-12-07T08:56:01;6.63;;;2.80;;
4074;SDS011;2052;53.522;9.806;2022-12-07T08:58:29;3.37;;;2.37;;
4074;SDS011;2052;53.522;9.806;2022-12-07T09:00:55;5.40;;;3.03;;
4074;SDS011;2052;53.522;9.806;2022-12-07T09:03:22;5.60;;;3.60;;
4074;SDS011;2052;53.522;9.806;2022-12-07T09:05:49;7.33;;;2.77;;
4074;SDS011;2052;53.522;9.806;2022-12-07T09:08:17;6.33;;;2.77;;
4074;SDS011;2052;53.522;9.806;2022-12-07T09:10:44;6.80;;;2.90;;
4074;SDS011;2052;53.522;9.806;2022-12-07T09:13:11;11.70;;;2.83;;
4074;SDS011;2052;53.522;9.806;2022-12-07T09:15:38;15.17;;;2.93;;
4074;SDS011;2052;53.522;9.806;2022-12-07T09:18:04;9.07;;;3.50;;
4074;SDS011;2052;53.522;9.806;2022-12-07T09:20:31;5.00;;;2.80;;
4074;SDS011;2052;53.522;9.806;2022-12-07T09:22:58;11.93;;;2.37;;
4074;SDS011;2052;53.522;9.806;2022-12-07T09:25:27;7.53;;;2.30;;
4074;SDS011;2052;53.522;9.806;2022-12-07T09:27:56;3.90;;;2.90;;
4074;SDS011;2052;53.522;9.806;2022-12-07T09:30:24;5.63;;;2.50;;
4074;SDS011;2052;53.522;9.806;2022-12-07T09:32:52;6.23;;;2.20;;
4074;SDS011;2052;53.522;9.806;2022-12-07T09:35:19;5.30;;;2.00;;
4074;SDS011;2052;53.522;9.806;2022-12-07T09:37:46;3.47;;;1.83;;
4074;SDS011;2052;53.522;9.806;2022-12-07T09:40:13;4.80;;;2.37;;
4074;SDS011;2052;53.522;9.806;2022-12-07T09:42:43;11.33;;;2.63;;
4074;SDS011;2052;53.522;9.806;2022-12-07T09:45:12;8.03;;;2.37;;
4074;SDS011;2052;53.522;9.806;2022-12-07T09:47:40;3.80;;;1.90;;
4074;SDS011;2052;53.522;9.806;2022-12-07T09:50:11;9.50;;;1.53;;
4074;SDS011;2052;53.522;9.806;2022-12-07T09:52:40;5.80;;;1.57;;
4074;SDS011;2052;53.522;9.806;2022-12-07T09:55:09;5.23;;;1.60;;
4074;SDS011;2052;53.522;9.806;2022-12-07T09:57:37;2.00;;;1.10;;
4074;SDS011;2052;53.522;9.806;2022-12-07T10:00:10;8.53;;;1.20;;
4074;SDS011;2052;53.522;9.806;2022-12-07T10:02:39;1.43;;;1.30;;
4074;SDS011;2052;53.522;9.806;2022-12-07T10:05:11;2.77;;;1.80;;
4074;SDS011;2052;53.522;9.806;2022-12-07T10:07:40;3.37;;;1.50;;
4074;SDS011;2052;53.522;9.806;2022-12-07T10:10:09;5.70;;;1.57;;
4074;SDS011;2052;53.522;9.806;2022-12-07T10:12:52;2.53;;;1.27;;
4074;SDS011;2052;53.522;9.806;2022-12-07T10:15:25;4.10;;;1.33;;
4074;SDS011;2052;53.522;9.806;2022-12-07T10:18:16;1.77;;;1.60;;
4074;SDS011;2052;53.522;9.806;2022-12-07T10:20:59;2.53;;;1.10;;
4074;SDS011;2052;53.522;9.806;2022-12-07T10:23:27;3.90;;;1.30;;
4074;SDS011;2052;53.522;9.806;2022-12-07T10:25:54;2.00;;;1.20;;
4074;SDS011;2052;53.522;9.806;2022-12-07T10:28:20;17.70;;;6.53;;
4074;SDS011;2052;53.522;9.806;2022-12-07T10:30:54;3.60;;;1.20;;
4074;SDS011;2052;53.522;9.806;2022-12-07T10:33:31;3.60;;;1.20;;
4074;SDS011;2052;53.522;9.806;2022-12-07T10:36:00;1.57;;;1.40;;
4074;SDS011;2052;53.522;9.806;2022-12-07T10:38:35;3.27;;;1.10;;
4074;SDS011;2052;53.522;9.806;2022-12-07T10:41:11;2.40;;;1.20;;
4074;SDS011;2052;53.522;9.806;2022-12-07T10:43:43;3.93;;;2.60;;
4074;SDS011;2052;53.522;9.806;2022-12-07T10:46:19;7.27;;;1.20;;
4074;SDS011;2052;53.522;9.806;2022-12-07T10:48:59;2.13;;;0.97;;
4074;SDS011;2052;53.522;9.806;2022-12-07T10:51:36;4.47;;;1.20;;
4074;SDS011;2052;53.522;9.806;2022-12-07T10:54:09;6.13;;;1.37;;
4074;SDS011;2052;53.522;9.806;2022-12-07T10:56:54;1.50;;;1.00;;
4074;SDS011;2052;53.522;9.806;2022-12-07T10:59:45;4.30;;;1.20;;
4074;SDS011;2052;53.522;9.806;2022-12-07T11:02:30;6.20;;;1.20;;
4074;SDS011;2052;53.522;9.806;2022-12-07T11:05:23;2.33;;;1.13;;
4074;SDS011;2052;53.522;9.806;2022-12-07T11:07:56;2.93;;;0.97;;
4074;SDS011;2052;53.522;9.806;2022-12-07T11:10:29;2.20;;;1.33;;
4074;SDS011;2052;53.522;9.806;2022-12-07T11:13:04;2.87;;;1.83;;
4074;SDS011;2052;53.522;9.806;2022-12-07T11:15:42;2.53;;;1.83;;
4074;SDS011;2052;53.522;9.806;2022-12-07T11:18:20;5.17;;;1.60;;
4074;SDS011;2052;53.522;9.806;2022-12-07T11:20:52;3.90;;;1.67;;
4074;SDS011;2052;53.522;9.806;2022-12-07T11:23:21;3.37;;;1.50;;
4074;SDS011;2052;53.522;9.806;2022-12-07T11:25:53;9.30;;;1.90;;
4074;SDS011;2052;53.522;9.806;2022-12-07T11:28:26;3.20;;;1.47;;
4074;SDS011;2052;53.522;9.806;2022-12-07T11:31:03;2.93;;;1.47;;
4074;SDS011;2052;53.522;9.806;2022-12-07T11:33:38;3.07;;;1.00;;
4074;SDS011;2052;53.522;9.806;2022-12-07T11:36:10;2.87;;;1.40;;
4074;SDS011;2052;53.522;9.806;2022-12-07T11:38:53;6.20;;;1.57;;
4074;SDS011;2052;53.522;9.806;2022-12-07T11:41:22;3.40;;;2.27;;
4074;SDS011;2052;53.522;9.806;2022-12-07T11:43:53;14.60;;;1.60;;
4074;SDS011;2052;53.522;9.806;2022-12-07T11:46:22;2.10;;;1.23;;
4074;SDS011;2052;53.522;9.806;2022-12-07T11:48:54;7.30;;;2.30;;
4074;SDS011;2052;53.522;9.806;2022-12-07T11:51:24;7.47;;;1.73;;
4074;SDS011;2052;53.522;9.806;2022-12-07T11:53:52;4.33;;;1.47;;
4074;SDS011;2052;53.522;9.806;2022-12-07T11:56:22;3.13;;;1.23;;
4074;SDS011;2052;53.522;9.806;2022-12-07T11:58:51;2.50;;;1.53;;
4074;SDS011;2052;53.522;9.806;2022-12-07T12:01:33;3.70;;;1.63;;
4074;SDS011;2052;53.522;9.806;2022-12-07T12:04:13;3.33;;;1.33;;
4074;SDS011;2052;53.522;9.806;2022-12-07T12:06:48;5.77;;;1.77;;
4074;SDS011;2052;53.522;9.806;2022-12-07T12:09:15;5.53;;;1.40;;
4074;SDS011;2052;53.522;9.806;2022-12-07T12:11:54;3.73;;;1.73;;
4074;SDS011;2052;53.522;9.806;2022-12-07T12:14:35;4.37;;;1.40;;
4074;SDS011;2052;53.522;9.806;2022-12-07T12:17:28;6.50;;;1.40;;
4074;SDS011;2052;53.522;9.806;2022-12-07T12:20:16;3.87;;;1.37;;
4074;SDS011;2052;53.522;9.806;2022-12-07T12:22:48;3.00;;;1.53;;
4074;SDS011;2052;53.522;9.806;2022-12-07T12:25:19;3.60;;;1.53;;
4074;SDS011;2052;53.522;9.806;2022-12-07T12:27:48;3.20;;;1.27;;
4074;SDS011;2052;53.522;9.806;2022-12-07T12:33:02;11.03;;;1.37;;
4074;SDS011;2052;53.522;9.806;2022-12-07T12:35:33;7.07;;;2.00;;
4074;SDS011;2052;53.522;9.806;2022-12-07T12:41:07;4.13;;;1.93;;
4074;SDS011;2052;53.522;9.806;2022-12-07T12:50:24;2.63;;;1.33;;
4074;SDS011;2052;53.522;9.806;2022-12-07T12:53:14;7.40;;;1.50;;
4074;SDS011;2052;53.522;9.806;2022-12-07T12:58:38;3.17;;;1.63;;
4074;SDS011;2052;53.522;9.806;2022-12-07T13:07:10;4.20;;;1.30;;
4074;SDS011;2052;53.522;9.806;2022-12-07T13:09:41;6.80;;;1.40;;
4074;SDS011;2052;53.522;9.806;2022-12-07T13:12:11;6.50;;;1.80;;
4074;SDS011;2052;53.522;9.806;2022-12-07T13:14:41;1.77;;;1.33;;
4074;SDS011;2052;53.522;9.806;2022-12-07T13:20:40;7.53;;;1.40;;
4074;SDS011;2052;53.522;9.806;2022-12-07T13:23:18;5.60;;;1.63;;
4074;SDS011;2052;53.522;9.806;2022-12-07T13:25:53;3.83;;;1.57;;
4074;SDS011;2052;53.522;9.806;2022-12-07T13:28:22;3.83;;;1.40;;
4074;SDS011;2052;53.522;9.806;2022-12-07T13:31:00;4.53;;;1.43;;
4074;SDS011;2052;53.522;9.806;2022-12-07T13:33:40;3.37;;;1.57;;
4074;SDS011;2052;53.522;9.806;2022-12-07T13:36:11;6.33;;;2.00;;
4074;SDS011;2052;53.522;9.806;2022-12-07T13:38:48;5.17;;;1.77;;
4074;SDS011;2052;53.522;9.806;2022-12-07T13:41:23;3.93;;;1.77;;
4074;SDS011;2052;53.522;9.806;2022-12-07T13:43:53;4.47;;;1.70;;
4074;SDS011;2052;53.522;9.806;2022-12-07T13:46:24;5.33;;;2.07;;
4074;SDS011;2052;53.522;9.806;2022-12-07T13:48:53;6.83;;;1.60;;
4074;SDS011;2052;53.522;9.806;2022-12-07T13:51:22;9.53;;;1.90;;
4074;SDS011;2052;53.522;9.806;2022-12-07T13:53:51;2.10;;;1.90;;
4074;SDS011;2052;53.522;9.806;2022-12-07T13:56:21;5.90;;;1.43;;
4074;SDS011;2052;53.522;9.806;2022-12-07T13:58:53;4.17;;;1.50;;
4074;SDS011;2052;53.522;9.806;2022-12-07T14:01:20;8.00;;;1.60;;
4074;SDS011;2052;53.522;9.806;2022-12-07T14:03:46;11.10;;;2.03;;
4074;SDS011;2052;53.522;9.806;2022-12-07T14:06:14;4.00;;;1.90;;
4074;SDS011;2052;53.522;9.806;2022-12-07T14:08:44;6.23;;;2.80;;
4074;SDS011;2052;53.522;9.806;2022-12-07T14:11:13;3.07;;;1.77;;
4074;SDS011;2052;53.522;9.806;2022-12-07T14:13:47;12.20;;;2.40;;
4074;SDS011;2052;53.522;9.806;2022-12-07T14:16:21;7.83;;;1.43;;
4074;SDS011;2052;53.522;9.806;2022-12-07T14:18:50;6.20;;;2.17;;
4074;SDS011;2052;53.522;9.806;2022-12-07T14:21:18;4.73;;;1.70;;
4074;SDS011;2052;53.522;9.806;2022-12-07T14:24:02;3.80;;;1.90;;
4074;SDS011;2052;53.522;9.806;2022-12-07T14:26:37;6.93;;;1.60;;
4074;SDS011;2052;53.522;9.806;2022-12-07T14:29:31;4.93;;;1.90;;
4074;SDS011;2052;53.522;9.806;2022-12-07T14:32:08;5.30;;;1.90;;
4074;SDS011;2052;53.522;9.806;2022-12-07T14:34:55;3.60;;;2.67;;
4074;SDS011;2052;53.522;9.806;2022-12-07T14:37:26;10.80;;;1.30;;
4074;SDS011;2052;53.522;9.806;2022-12-07T14:39:54;5.40;;;1.43;;
4074;SDS011;2052;53.522;9.806;2022-12-07T14:42:21;2.23;;;0.90;;
4074;SDS011;2052;53.522;9.806;2022-12-07T14:44:52;2.90;;;1.23;;
4074;SDS011;2052;53.522;9.806;2022-12-07T14:47:19;5.27;;;1.00;;
4074;SDS011;2052;53.522;9.806;2022-12-07T14:49:46;5.40;;;1.77;;
4074;SDS011;2052;53.522;9.806;2022-12-07T14:52:15;10.07;;;1.63;;
4074;SDS011;2052;53.522;9.806;2022-12-07T14:54:44;17.93;;;1.73;;
4074;SDS011;2052;53.522;9.806;2022-12-07T14:57:11;2.27;;;1.30;;
4074;SDS011;2052;53.522;9.806;2022-12-07T14:59:38;5.57;;;1.07;;
4074;SDS011;2052;53.522;9.806;2022-12-07T15:02:08;3.83;;;1.33;;
4074;SDS011;2052;53.522;9.806;2022-12-07T15:04:36;7.10;;;1.30;;
4074;SDS011;2052;53.522;9.806;2022-12-07T15:07:04;2.53;;;0.87;;
4074;SDS011;2052;53.522;9.806;2022-12-07T15:09:32;4.57;;;1.40;;
4074;SDS011;2052;53.522;9.806;2022-12-07T15:11:59;8.50;;;1.80;;
4074;SDS011;2052;53.522;9.806;2022-12-07T15:14:25;1.90;;;1.27;;
4074;SDS011;2052;53.522;9.806;2022-12-07T15:16:52;2.27;;;1.40;;
4074;SDS011;2052;53.522;9.806;2022-12-07T15:19:21;4.23;;;1.13;;
4074;SDS011;2052;53.522;9.806;2022-12-07T15:21:50;12.97;;;1.97;;
4074;SDS011;2052;53.522;9.806;2022-12-07T15:24:17;1.70;;;1.30;;
4074;SDS011;2052;53.522;9.806;2022-12-07T15:26:44;3.53;;;1.37;;
4074;SDS011;2052;53.522;9.806;2022-12-07T15:29:11;2.10;;;1.40;;
4074;SDS011;2052;53.522;9.806;2022-12-07T15:31:39;4.33;;;1.87;;
4074;SDS011;2052;53.522;9.806;2022-12-07T15:34:06;4.20;;;2.00;;
4074;SDS011;2052;53.522;9.806;2022-12-07T15:36:35;9.67;;;2.40;;
4074;SDS011;2052;53.522;9.806;2022-12-07T15:39:02;5.90;;;1.60;;
4074;SDS011;2052;53.522;9.806;2022-12-07T15:41:29;3.53;;;2.60;;
4074;SDS011;2052;53.522;9.806;2022-12-07T15:43:56;13.47;;;3.60;;
4074;SDS011;2052;53.522;9.806;2022-12-07T15:46:40;4.40;;;2.80;;
4074;SDS011;2052;53.522;9.806;2022-12-07T15:49:09;5.07;;;2.70;;
4074;SDS011;2052;53.522;9.806;2022-12-07T15:51:38;7.77;;;2.70;;